Somerset, Massachusetts
Current Conditions -  °F | °C
As of 7:53 PM on Monday 22 Dec 2014 (Local Time) from KEWB Reporting Station
Broken Clouds Broken Clouds  
Wind Chill:   Ceiling: 5000
Heat Index:   Visibility: 10mi
Dew Point:   Wind: 5mph
Humidity: 96%   Direction: 30°NNE
Pressure: 30.3"   Gusts: NA
Location:  41.75°N, 71.14°W
Report Text: KEWB 230053Z 03004KT 10SM BKN050 04/03 A3030 RMK AO2 SLP260 T00390033
Loading
Personal Weather Stations






























Interactive Weather Map New forecast layout! Learn more

10-Day Weather Forecast

Advertisements
Track Severe Weather on mobile